Last 24 Hour KALB Observations

Last 24 hours of surface weather observations from the Albany County Airport. Observations taken by the National Weather Service.

KALB 220951Z 34007KT 10SM FEW130 SCT150 BKN260 M02/M08 A2981 RMK AO2 SLP097
KALB 221051Z 34009KT 10SM FEW130 BKN150 BKN260 M02/M08 A2983 RMK AO2 SLP104
KALB 221151Z 35006KT 10SM FEW120 SCT150 BKN210 BKN260 M01/M08 A2985 RMK AO2
 SLP112 4/005 T10111078 11006 21028 53016=
KALB 221251Z 34008KT 10SM FEW120 SCT160 SCT210 BKN260 M01/M07 A2987 RMK AO2
 SLP117 T10061072=
KALB 221351Z 33009KT 10SM FEW120 FEW150 SCT210 BKN260 00/M07 A2987 RMK AO2
 SLP119 T00001072=
KALB 221451Z 33012KT 10SM FEW120 BKN170 BKN260 02/M07 A2986 RMK AO2 SLP116
 T00171067 50004=
KALB 221551Z 33008KT 10SM BKN170 BKN260 03/M07 A2986 RMK AO2 SLP113 T00331067=
KALB 221651Z 33013KT 10SM SCT180 BKN260 04/M07 A2985 RMK AO2 SLP109 T00441067=
KALB 221751Z 30009KT 10SM SCT180 BKN260 06/M06 A2984 RMK AO2 SLP107 4/005
 933013 T00561061 10056 21011 57008=
KALB 221851Z 33011KT 10SM FEW180 BKN260 07/M06 A2983 RMK AO2 SLP105 T00671061=
KALB 221951Z 34013KT 10SM FEW180 BKN260 07/M06 A2984 RMK AO2 SLP107 T00721056=
KALB 222051Z 30014KT 10SM SCT190 BKN240 07/M06 A2985 RMK AO2 SLP109 T00721061
KALB 222151Z 30013KT 10SM FEW070 SCT170 BKN240 07/M06 A2987 RMK AO2 SLP116
KALB 222251Z 31008KT 10SM FEW070 SCT160 BKN240 06/M06 A2990 RMK AO2 SLP128
KALB 222351Z 32010KT 10SM FEW050 SCT150 BKN240 04/M06 A2993 RMK AO2 SLP138
 4/004 T00441056 10072 20044 53028=
KALB 230051Z 30008KT 10SM SCT060 BKN180 04/M06 A2996 RMK AO2 SLP148 T00391056=
KALB 230151Z 30008KT 10SM SCT180 03/M06 A2997 RMK AO2 SLP153 T00281061=
KALB 230251Z 10SM FEW170 02/M06 A2998 RMK AO2 SLP154 T00221061 51017=
KALB 230251Z COR 31007KT 10SM FEW170 02/M06 A2998 RMK AO2 SLP154 T00221061
KALB 230351Z 31005KT 10SM FEW170 01/M07 A2999 RMK AO2 SLP156 T00061067=
KALB 230451Z 26003KT 10SM FEW200 01/M07 A2998 RMK AO2 SLP155 T00061072
KALB 230551Z 29003KT 10SM FEW200 00/M07 A2998 RMK AO2 SLP155 4/004 T00001067
 10044 20000 51001=
KALB 230651Z 27005KT 10SM FEW200 SCT260 M01/M06 A2997 RMK AO2 SLP153 T10061061=
KALB 230751Z 22004KT 10SM SCT070 SCT260 M01/M07 A2997 RMK AO2 SLP152 T10111067=
KALB 230851Z 25003KT 10SM BKN075 BKN260 M01/M07 A2998 RMK AO2 SLP154 T10061067
KALB 230951Z 28005KT 10SM OVC080 00/M06 A3000 RMK AO2 SLP159 T00001056=